地図

経路データ

SID SEASON NUMBER BASIN SUBBASIN NAME ISO_TIME NATURE LAT LON WMO_WIND WMO_PRES WMO_AGENCY TRACK_TYPE DIST2LAND LANDFALL IFLAG USA_AGENCY USA_ATCF_ID USA_LAT USA_LON USA_RECORD USA_STATUS USA_WIND USA_PRES USA_SSHS USA_R34_NE USA_R34_SE USA_R34_SW USA_R34_NW USA_R50_NE USA_R50_SE USA_R50_SW USA_R50_NW USA_R64_NE USA_R64_SE USA_R64_SW USA_R64_NW USA_POCI USA_ROCI USA_RMW USA_EYE TOKYO_LAT TOKYO_LON TOKYO_GRADE TOKYO_WIND TOKYO_PRES TOKYO_R50_DIR TOKYO_R50_LONG TOKYO_R50_SHORT TOKYO_R30_DIR TOKYO_R30_LONG TOKYO_R30_SHORT TOKYO_LAND CMA_LAT CMA_LON CMA_CAT CMA_WIND CMA_PRES HKO_LAT HKO_LON HKO_CAT HKO_WIND HKO_PRES NEWDELHI_LAT NEWDELHI_LON NEWDELHI_GRADE NEWDELHI_WIND NEWDELHI_PRES NEWDELHI_CI NEWDELHI_DP NEWDELHI_POCI REUNION_LAT REUNION_LON REUNION_TYPE REUNION_WIND REUNION_PRES REUNION_TNUM REUNION_CI REUNION_RMW REUNION_R34_NE REUNION_R34_SE REUNION_R34_SW REUNION_R34_NW REUNION_R50_NE REUNION_R50_SE REUNION_R50_SW REUNION_R50_NW REUNION_R64_NE REUNION_R64_SE REUNION_R64_SW REUNION_R64_NW BOM_LAT BOM_LON BOM_TYPE BOM_WIND BOM_PRES BOM_TNUM BOM_CI BOM_RMW BOM_R34_NE BOM_R34_SE BOM_R34_SW BOM_R34_NW BOM_R50_NE BOM_R50_SE BOM_R50_SW BOM_R50_NW BOM_R64_NE BOM_R64_SE BOM_R64_SW BOM_R64_NW BOM_ROCI BOM_POCI BOM_EYE BOM_POS_METHOD BOM_PRES_METHOD NADI_LAT NADI_LON NADI_CAT NADI_WIND NADI_PRES WELLINGTON_LAT WELLINGTON_LON WELLINGTON_WIND WELLINGTON_PRES DS824_LAT DS824_LON DS824_STAGE DS824_WIND DS824_PRES TD9636_LAT TD9636_LON TD9636_STAGE TD9636_WIND TD9636_PRES TD9635_LAT TD9635_LON TD9635_WIND TD9635_PRES TD9635_ROCI NEUMANN_LAT NEUMANN_LON NEUMANN_CLASS NEUMANN_WIND NEUMANN_PRES MLC_LAT MLC_LON MLC_CLASS MLC_WIND MLC_PRES USA_GUST BOM_GUST BOM_GUST_PER REUNION_GUST REUNION_GUST_PER USA_SEAHGT USA_SEARAD_NE USA_SEARAD_SE USA_SEARAD_SW USA_SEARAD_NW STORM_SPEED STORM_DIR
1996324S04164 1997 114 SP MM CYRIL 1996-11-19 00:00:00 TS -4.00000 163.500 main 576 555 O___________O_ jtwc_sh SH061997 -4.00000 163.500 15 -1 -4.00000 163.500 TC 15 5 257
1996324S04164 1997 114 SP MM CYRIL 1996-11-19 03:00:00 TS -4.06002 163.243 main 550 539 P___________P_ SH061997 -4.06002 163.243 15 -1 -4.06002 163.243 TC 15 5 259
1996324S04164 1997 114 SP MM CYRIL 1996-11-19 06:00:00 TS -4.10000 163.000 main 539 530 O___________O_ jtwc_sh SH061997 -4.10000 163.000 15 -1 -4.10000 163.000 TC 15 5 264
1996324S04164 1997 114 SP MM CYRIL 1996-11-19 09:00:00 TS -4.10749 162.785 main 530 521 P___________P_ SH061997 -4.10749 162.785 15 -1 -4.10749 162.785 TC 15 4 270
1996324S04164 1997 114 SP MM CYRIL 1996-11-19 12:00:00 TS -4.10000 162.600 main 521 517 O___________O_ jtwc_sh SH061997 -4.10000 162.600 15 -1 -4.10000 162.600 TC 15 3 271
1996324S04164 1997 114 SP MM CYRIL 1996-11-19 15:00:00 TS -4.09998 162.458 main 517 509 P___________P_ SH061997 -4.09998 162.458 15 -1 -4.09998 162.458 TC 15 3 270
1996324S04164 1997 114 SP MM CYRIL 1996-11-19 18:00:00 TS -4.10000 162.300 main 509 502 O___________O_ jtwc_sh SH061997 -4.10000 162.300 15 -1 -4.10000 162.300 TC 15 4 270
1996324S04164 1997 114 SP MM CYRIL 1996-11-19 21:00:00 TS -4.10000 162.065 main 502 494 P___________P_ SH061997 -4.10000 162.065 17 -1 -4.10000 162.065 TC 17 5 270
1996324S04164 1997 114 SP MM CYRIL 1996-11-20 00:00:00 TS -4.10000 161.800 main 494 489 O___________O_ jtwc_sh SH061997 -4.10000 161.800 20 -1 -4.10000 161.800 TC 20 5 270
1996324S04164 1997 114 SP MM CYRIL 1996-11-20 03:00:00 TS -4.09998 161.558 main 489 484 P___________P_ SH061997 -4.09998 161.558 20 -1 -4.09998 161.558 TC 20 5 270
1996324S04164 1997 114 SP MM CYRIL 1996-11-20 06:00:00 TS -4.10000 161.300 main 484 467 O___________O_ jtwc_sh SH061997 -4.10000 161.300 20 -1 -4.10000 161.300 TC 20 5 271
1996324S04164 1997 114 SP MM CYRIL 1996-11-20 09:00:00 TS -4.09250 161.007 main 467 450 P___________P_ SH061997 -4.09250 161.007 20 -1 -4.09250 161.007 TC 20 6 270
1996324S04164 1997 114 SP MM CYRIL 1996-11-20 12:00:00 TS -4.10000 160.700 main 450 434 O___________O_ jtwc_sh SH061997 -4.10000 160.700 20 -1 -4.10000 160.700 TC 20 6 265
1996324S04164 1997 114 SP MM CYRIL 1996-11-20 15:00:00 TS -4.14249 160.400 main 434 411 P___________P_ SH061997 -4.14249 160.400 20 -1 -4.14249 160.400 TC 20 6 261
1996324S04164 1997 114 SP MM CYRIL 1996-11-20 18:00:00 TS -4.20000 160.100 main 411 399 O___________O_ jtwc_sh SH061997 -4.20000 160.100 20 -1 -4.20000 160.100 TC 20 6 261
1996324S04164 1997 114 SP EA CYRIL 1996-11-20 21:00:00 TS -4.24249 159.800 main 399 380 P___________P_ SH061997 -4.24249 159.800 20 -1 -4.24249 159.800 TC 20 6 261
1996324S04164 1997 114 SP EA CYRIL 1996-11-21 00:00:00 TS -4.30000 159.500 main 380 362 O___________O_ jtwc_sh SH061997 -4.30000 159.500 20 -1 -4.30000 159.500 TC 20 6 257
1996324S04164 1997 114 SP EA CYRIL 1996-11-21 03:00:00 TS -4.37750 159.192 main 362 341 P___________P_ SH061997 -4.37750 159.192 22 -1 -4.37750 159.192 TC 22 6 252
1996324S04164 1997 114 SP EA CYRIL 1996-11-21 06:00:00 TS -4.50000 158.900 main 341 312 O___________O_ jtwc_sh SH061997 -4.50000 158.900 25 -1 -4.50000 158.900 TC 25 6 244
1996324S04164 1997 114 SP EA CYRIL 1996-11-21 09:00:00 TS -4.65501 158.613 main 303 272 P___________P_ SH061997 -4.65501 158.613 25 -1 -4.65501 158.613 TC 25 6 231
1996324S04164 1997 114 SP EA CYRIL 1996-11-21 12:00:00 TS -4.90000 158.400 main 272 238 O___________O_ jtwc_sh SH061997 -4.90000 158.400 25 -1 -4.90000 158.400 TC 25 7 210
1996324S04164 1997 114 SP EA CYRIL 1996-11-21 15:00:00 TS -5.25497 158.268 main 229 196 P___________P_ SH061997 -5.25497 158.268 25 -1 -5.25497 158.268 TC 25 8 187
1996324S04164 1997 114 SP EA CYRIL 1996-11-21 18:00:00 TS -5.70000 158.300 main 196 168 O___________O_ jtwc_sh SH061997 -5.70000 158.300 25 -1 -5.70000 158.300 TC 25 10 163
1996324S04164 1997 114 SP EA CYRIL 1996-11-21 21:00:00 TS -6.17006 158.555 main 156 103 P___________P_ SH061997 -6.17006 158.555 25 -1 -6.17006 158.555 TC 25 12 149
1996324S04164 1997 114 SP EA CYRIL 1996-11-22 00:00:00 TS -6.70000 158.900 main 103 62 O___________O_ jtwc_sh SH061997 -6.70000 158.900 25 -1 -6.70000 158.900 TC 25 13 152
1996324S04164 1997 114 SP EA CYRIL 1996-11-22 03:00:00 TS -7.28498 159.158 main 62 0 P___________P_ SH061997 -7.28498 159.158 25 -1 -7.28498 159.158 TC 25 16 157
1996324S04164 1997 114 SP EA CYRIL 1996-11-22 06:00:00 TS -8.12000 159.520 15 1004 nadi main 0 0 O_______O___O_ jtwc_sh SH061997 -7.90000 159.400 25 -1 -9.00000 160.000 15 1004 -9.00000 160.000 15 1004 -7.90000 159.400 TC 25 16 155
1996324S04164 1997 114 SP EA CYRIL 1996-11-22 09:00:00 TS -8.75336 159.854 main 22 15 P______IP___P_ SH061997 -8.47753 159.672 27 -1 -9.30502 160.217 17 1003 -9.30502 160.217 17 1003 -8.47753 159.672 TC 27 13 154
1996324S04164 1997 114 SP MM CYRIL 1996-11-22 12:00:00 TS -9.31429 160.114 20 1002 nadi main 15 0 O_______O___O_ jtwc_sh SH061997 -9.10000 159.900 30 -1 -9.60000 160.400 20 1002 -9.60000 160.400 20 1002 -9.10000 159.900 TC 30 12 160
1996324S04164 1997 114 SP MM CYRIL 1996-11-22 15:00:00 TS -9.86875 160.269 main 11 11 P______IP___P_ SH061997 -9.82747 160.015 30 -1 -9.91002 160.523 22 1001 -9.91002 160.523 22 1001 -9.82747 160.015 TC 30 12 169
1996324S04164 1997 114 SP MM CYRIL 1996-11-22 18:00:00 TS -10.5000 160.350 25 1000 nadi main 70 70 O_______O___O_ jtwc_sh SH061997 -10.6000 160.100 30 -1 -10.4000 160.600 25 1000 -10.4000 160.600 25 1000 -10.6000 160.100 TC 30 15 172
1996324S04164 1997 114 SP MM CYRIL 1996-11-22 21:00:00 TS -11.3138 160.465 main 134 134 P______IP___P_ SH061997 -11.3650 160.250 30 -1 -11.2625 160.680 25 999 -11.2625 160.680 25 999 -11.3650 160.250 TC 30 17 173
1996324S04164 1997 114 SP MM CYRIL 1996-11-23 00:00:00 TS -12.1500 160.550 25 999 nadi main 194 200 O_______O___O_ jtwc_sh SH061997 -12.1000 160.400 30 -1 -12.2000 160.700 25 999 -12.2000 160.700 25 999 -12.1000 160.400 TC 30 15 177
1996324S04164 1997 114 SP MM CYRIL 1996-11-23 03:00:00 TS -12.8300 160.554 main 259 259 P______IP___P_ SH061997 -12.7725 160.500 32 -1 -12.8875 160.608 27 998 -12.8875 160.608 27 998 -12.7725 160.500 TC 32 13 179
1996324S04164 1997 114 SP MM CYRIL 1996-11-23 06:00:00 TS -13.4500 160.550 30 997 nadi main 319 319 O_______O___O_ jtwc_sh SH061997 -13.4000 160.600 35 0 -13.5000 160.500 30 997 -13.5000 160.500 30 997 -13.4000 160.600 TC 35 13 177
1996324S04164 1997 114 SP MM CYRIL 1996-11-23 09:00:00 TS -14.1162 160.621 main 391 391 P______IP___P_ SH061997 -14.0375 160.765 37 0 -14.1950 160.477 32 996 -14.1950 160.477 32 996 -14.0375 160.765 TC 37 13 173
1996324S04164 1997 114 SP MM CYRIL 1996-11-23 12:00:00 TS -14.7000 160.700 35 995 nadi main 452 452 O_______O___O_ jtwc_sh SH061997 -14.6000 160.900 40 0 -14.8000 160.500 35 995 -14.8000 160.500 35 995 -14.6000 160.900 TC 40 10 174
1996324S04164 1997 114 SP MM CYRIL 1996-11-23 15:00:00 TS -15.1162 160.725 main 496 496 P______IP___P_ SH061997 -15.0300 160.908 42 0 -15.2025 160.542 37 992 -15.2025 160.542 37 992 -15.0300 160.908 TC 42 8 178
1996324S04164 1997 114 SP MM CYRIL 1996-11-23 18:00:00 TS -15.4500 160.750 40 990 nadi main 526 537 O_______O___O_ jtwc_sh SH061997 -15.4000 160.900 45 0 -15.5000 160.600 40 990 -15.5000 160.600 40 990 -15.4000 160.900 TC 45 7 172
1996324S04164 1997 114 SP MM CYRIL 1996-11-23 21:00:00 TS -15.8150 160.825 main 570 569 P______IP___P_ SH061997 -15.8150 160.985 47 0 -15.8150 160.665 42 988 -15.8150 160.665 42 988 -15.8150 160.985 TC 47 7 168
1996324S04164 1997 114 SP MM CYRIL 1996-11-24 00:00:00 TS -16.1500 160.900 45 987 nadi main 569 543 O_______O___O_ jtwc_sh SH061997 -16.2000 161.100 50 0 -16.1000 160.700 45 987 -16.1000 160.700 45 987 -16.2000 161.100 TC 50 6 170
1996324S04164 1997 114 SP MM CYRIL 1996-11-24 03:00:00 TS -16.4438 160.940 main 543 510 P______IP___P_ SH061997 -16.5225 161.215 50 0 -16.3650 160.665 45 987 -16.3650 160.665 45 987 -16.5225 161.215 TC 50 6 176
1996324S04164 1997 114 SP MM CYRIL 1996-11-24 06:00:00 TS -16.7000 160.950 45 987 nadi main 510 500 O_______O___O_ jtwc_sh SH061997 -16.8000 161.300 50 0 -16.6000 160.600 45 987 -16.6000 160.600 45 987 -16.8000 161.300 TC 50 5 181
1996324S04164 1997 114 SP MM CYRIL 1996-11-24 09:00:00 TS -16.9362 160.933 main 500 483 P______IP___P_ SH061997 -17.0650 161.323 50 0 -16.8075 160.543 42 988 -16.8075 160.543 42 988 -17.0650 161.323 TC 50 5 184
1996324S04164 1997 114 SP MM CYRIL 1996-11-24 12:00:00 TS -17.1500 160.900 40 990 nadi main 483 467 O_______O___O_ jtwc_sh SH061997 -17.3000 161.300 50 0 -17.0000 160.500 40 990 -17.0000 160.500 40 990 -17.3000 161.300 TC 50 4 184
1996324S04164 1997 114 SP MM CYRIL 1996-11-24 15:00:00 TS -17.3500 160.886 main 467 452 P______IP___P_ SH061997 -17.5150 161.280 50 0 -17.1850 160.492 40 990 -17.1850 160.492 40 990 -17.5150 161.280 TC 50 4 185
1996324S04164 1997 114 SP MM CYRIL 1996-11-24 18:00:00 TS -17.5500 160.850 40 990 nadi main 452 437 O_______O___O_ jtwc_sh SH061997 -17.7000 161.200 50 0 -17.4000 160.500 40 990 -17.4000 160.500 40 990 -17.7000 161.200 TC 50 4 196
1996324S04164 1997 114 SP MM CYRIL 1996-11-24 21:00:00 TS -17.7713 160.758 main 437 431 P______IP___P_ SH061997 -17.8501 161.015 47 0 -17.6925 160.500 40 990 -17.6925 160.500 40 990 -17.8501 161.015 TC 47 5 203
1996324S04164 1997 114 SP MM CYRIL 1996-11-25 00:00:00 TS -18.0000 160.650 40 990 nadi main 431 427 O_______O___O_ jtwc_sh SH061997 -18.0000 160.800 45 0 -18.0000 160.500 40 990 -18.0000 160.500 40 990 -18.0000 160.800 TC 45 5 205
1996324S04164 1997 114 SP MM CYRIL 1996-11-25 03:00:00 TS -18.2175 160.538 main 436 424 P______IP___P_ SH061997 -18.1775 160.598 45 0 -18.2575 160.478 37 992 -18.2575 160.478 37 992 -18.1775 160.598 TC 45 5 197
1996324S04164 1997 114 SP MM CYRIL 1996-11-25 06:00:00 TS -18.4500 160.500 35 995 nadi main 424 398 O_______O___O_ jtwc_sh SH061997 -18.4000 160.500 45 0 -18.5000 160.500 35 995 -18.5000 160.500 35 995 -18.4000 160.500 TC 45 5 174
1996324S04164 1997 114 SP MM CYRIL 1996-11-25 09:00:00 TS -18.7212 160.597 main 398 365 P______IP___P_ SH061997 -18.6924 160.582 42 0 -18.7500 160.613 35 995 -18.7500 160.613 35 995 -18.6924 160.582 TC 42 6 153
1996324S04164 1997 114 SP MM CYRIL 1996-11-25 12:00:00 TS -19.0000 160.800 35 995 nadi main 365 333 O_______O___O_ jtwc_sh SH061997 -19.0000 160.800 40 0 -19.0000 160.800 35 995 -19.0000 160.800 35 995 -19.0000 160.800 TC 40 7 144
1996324S04164 1997 114 SP MM CYRIL 1996-11-25 15:00:00 TS -19.2686 161.026 main 333 296 P______IP___P_ SH061997 -19.2723 161.040 37 0 -19.2649 161.013 35 995 -19.2649 161.013 35 995 -19.2723 161.040 TC 37 7 134
1996324S04164 1997 114 SP MM CYRIL 1996-11-25 18:00:00 TS -19.5000 161.350 35 995 nadi main 286 249 O_______O___O_ jtwc_sh SH061997 -19.5000 161.400 35 0 -19.5000 161.300 35 995 -19.5000 161.300 35 995 -19.5000 161.400 TC 35 8 120
1996324S04164 1997 114 SP MM CYRIL 1996-11-25 21:00:00 TS -19.6760 161.761 main 239 186 P______IP___P_ SH061997 -19.6725 161.905 32 -1 -19.6795 161.618 32 996 -19.6795 161.618 32 996 -19.6725 161.905 TC 32 9 109
1996324S04164 1997 114 SP MM CYRIL 1996-11-26 00:00:00 TS -19.8000 162.300 30 997 nadi main 186 123 O_______O___O_ jtwc_sh SH061997 -19.8000 162.500 30 -1 -19.8000 162.100 30 997 -19.8000 162.100 30 997 -19.8000 162.500 TC 30 11 100
1996324S04164 1997 114 SP MM CYRIL 1996-11-26 03:00:00 TS -19.8712 162.952 main 113 53 P______IP___P_ SH061997 -19.8997 163.078 27 -1 -19.8426 162.826 27 998 -19.8426 162.826 27 998 -19.8997 163.078 TC 27 13 97
1996324S04164 1997 114 SP MM CYRIL 1996-11-26 06:00:00 TS -19.9500 163.700 25 999 nadi main 53 22 O_______O___O_ jtwc_sh SH061997 -20.0000 163.700 25 -1 -19.9000 163.700 25 999 -19.9000 163.700 25 999 -20.0000 163.700 TC 25 15 99
1996324S04164 1997 114 SP MM CYRIL 1996-11-26 09:00:00 TS -20.1026 164.507 main 22 22 P______IP___P_ SH061997 -20.1351 164.400 25 -1 -20.0702 164.615 25 999 -20.0702 164.615 25 999 -20.1351 164.400 TC 25 15 103
1996324S04164 1997 114 SP MM CYRIL 1996-11-26 12:00:00 TS -20.3000 165.300 25 1000 nadi main 56 54 O_______O___O_ jtwc_sh SH061997 -20.3000 165.100 25 -1 -20.3000 165.500 25 1000 -20.3000 165.500 25 1000 -20.3000 165.100 TC 25 14 108
1996324S04164 1997 114 SP MM CYRIL 1996-11-26 15:00:00 TS -20.5355 165.957 main 83 76 P______IP___P_ SH061997 -20.4996 165.715 25 -1 -20.5714 166.200 22 1001 -20.5714 166.200 22 1001 -20.4996 165.715 TC 25 13 111
1996324S04164 1997 114 SP MM CYRIL 1996-11-26 18:00:00 TS -20.7429 166.557 20 1002 nadi main 103 93 O_______O___O_ jtwc_sh SH061997 -20.7000 166.300 25 -1 -20.8000 166.900 20 1002 -20.8000 166.900 20 1002 -20.7000 166.300 TC 25 12 107
1996324S04164 1997 114 SP MM CYRIL 1996-11-26 21:00:00 TS -20.8796 167.193 main 121 121 P______IP___P_ SH061997 -20.8724 166.915 25 -1 -20.8941 167.750 17 1003 -20.8941 167.750 17 1003 -20.8724 166.915 TC 25 11 102
1996324S04164 1997 114 SP MM CYRIL 1996-11-27 00:00:00 TS -20.9800 167.740 15 1004 nadi main 148 148 O_______O___O_ jtwc_sh SH061997 -21.0000 167.500 25 -1 -20.9000 168.700 15 1004 -20.9000 168.700 15 1004 -21.0000 167.500 TC 25 8 103
1996324S04164 1997 114 SP MM CYRIL 1996-11-27 03:00:00 TS -21.0574 168.038 main 159 159 P___________P_ SH061997 -21.0574 168.038 25 -1 -21.0574 168.038 TC 25 7 100
1996324S04164 1997 114 SP MM CYRIL 1996-11-27 06:00:00 TS -21.1000 168.500 main 197 197 O___________O_ jtwc_sh SH061997 -21.1000 168.500 25 -1 -21.1000 168.500 TC 25 8 99
1996324S04164 1997 114 SP MM CYRIL 1996-11-27 09:00:00 TS -21.1848 168.888 main 225 225 P___________P_ SH061997 -21.1848 168.888 25 -1 -21.1848 168.888 TC 25 7 107
1996324S04164 1997 114 SP MM CYRIL 1996-11-27 12:00:00 TS -21.3000 169.200 main 248 248 O___________O_ jtwc_sh SH061997 -21.3000 169.200 25 -1 -21.3000 169.200 TC 25 6 115
1996324S04164 1997 114 SP MM CYRIL 1996-11-27 15:00:00 TS -21.4424 169.480 main 273 269 P___________P_ SH061997 -21.4424 169.480 25 -1 -21.4424 169.480 TC 25 6 123
1996324S04164 1997 114 SP MM CYRIL 1996-11-27 18:00:00 TS -21.6000 169.700 main 286 286 O___________O_ jtwc_sh SH061997 -21.6000 169.700 25 -1 -21.6000 169.700 TC 25 5 130
1996324S04164 1997 114 SP MM CYRIL 1996-11-27 21:00:00 TS -21.7725 169.902 main 302 302 P___________P_ SH061997 -21.7725 169.902 25 -1 -21.7725 169.902 TC 25 4 137
1996324S04164 1997 114 SP MM CYRIL 1996-11-28 00:00:00 TS -21.9000 170.000 main 310 300 O___________O_ jtwc_sh SH061997 -21.9000 170.000 25 -1 -21.9000 170.000 TC 25 2 168
1996324S04164 1997 114 SP MM CYRIL 1996-11-28 03:00:00 TS -21.9225 169.938 main 300 290 P___________P_ SH061997 -21.9225 169.938 25 -1 -21.9225 169.938 TC 25 2 270
1996324S04164 1997 114 SP MM CYRIL 1996-11-28 06:00:00 TS -21.9000 169.800 main 290 280 O___________O_ jtwc_sh SH061997 -21.9000 169.800 25 -1 -21.9000 169.800 TC 25 2 276
1996324S04164 1997 114 SP MM CYRIL 1996-11-28 09:00:00 TS -21.9000 169.708 main 280 269 P___________P_ SH061997 -21.9000 169.708 25 -1 -21.9000 169.708 TC 25 2 270
1996324S04164 1997 114 SP MM CYRIL 1996-11-28 12:00:00 TS -21.9000 169.600 main 269 259 O___________O_ jtwc_sh SH061997 -21.9000 169.600 25 -1 -21.9000 169.600 TC 25 2 270
1996324S04164 1997 114 SP MM CYRIL 1996-11-28 15:00:00 TS -21.9000 169.450 main 259 239 P___________P_ SH061997 -21.9000 169.450 22 -1 -21.9000 169.450 TC 22 3 270
1996324S04164 1997 114 SP MM CYRIL 1996-11-28 18:00:00 TS -21.9000 169.300 main 239 229 O___________O_ jtwc_sh SH061997 -21.9000 169.300 20 -1 -21.9000 169.300 TC 20 2 270
1996324S04164 1997 114 SP MM CYRIL 1996-11-28 21:00:00 TS -21.9000 169.193 main 229 218 P___________P_ SH061997 -21.9000 169.193 20 -1 -21.9000 169.193 TC 20 2 270
1996324S04164 1997 114 SP MM CYRIL 1996-11-29 00:00:00 TS -21.9000 169.100 main 218 208 O___________O_ jtwc_sh SH061997 -21.9000 169.100 20 -1 -21.9000 169.100 TC 20 2 272
1996324S04164 1997 114 SP MM CYRIL 1996-11-29 03:00:00 TS -21.8925 169.000 main 208 198 P___________P_ SH061997 -21.8925 169.000 20 -1 -21.8925 169.000 TC 20 2 270
1996324S04164 1997 114 SP MM CYRIL 1996-11-29 06:00:00 TS -21.9000 168.900 main 198 188 O___________O_ jtwc_sh SH061997 -21.9000 168.900 20 -1 -21.9000 168.900 TC 20 2 256
1996324S04164 1997 114 SP MM CYRIL 1996-11-29 09:00:00 TS -21.9350 168.807 main 188 176 P___________P_ SH061997 -21.9350 168.807 20 -1 -21.9350 168.807 TC 20 2 241
1996324S04164 1997 114 SP MM CYRIL 1996-11-29 12:00:00 TS -22.0000 168.700 main 176 165 O___________O_ jtwc_sh SH061997 -22.0000 168.700 20 -1 -22.0000 168.700 TC 20 3 236
1996324S04164 1997 114 SP MM CYRIL 1996-11-29 15:00:00 TS -22.0925 168.558 main 165 144 P___________P_ SH061997 -22.0925 168.558 20 -1 -22.0925 168.558 TC 20 3 234
1996324S04164 1997 114 SP MM CYRIL 1996-11-29 18:00:00 TS -22.2000 168.400 main 144 123 O___________O_ jtwc_sh SH061997 -22.2000 168.400 20 -1 -22.2000 168.400 TC 20 4 237
1996324S04164 1997 114 SP MM CYRIL 1996-11-29 21:00:00 TS -22.2925 168.228 main 123 113 P___________P_ SH061997 -22.2925 168.228 17 -1 -22.2925 168.228 TC 17 3 234
1996324S04164 1997 114 SP MM CYRIL 1996-11-30 00:00:00 TS -22.4000 168.100 main 113 113 O___________O_ jtwc_sh SH061997 -22.4000 168.100 15 -1 -22.4000 168.100 TC 15 3 212
1996324S04164 1997 114 SP MM CYRIL 1996-11-30 03:00:00 TS -22.5425 168.062 main 115 115 P___________P_ SH061997 -22.5425 168.062 15 -1 -22.5425 168.062 TC 15 3 0
1996324S04164 1997 114 SP MM CYRIL 1996-11-30 06:00:00 TS -22.7000 168.100 main 121 121 O___________O_ jtwc_sh SH061997 -22.7000 168.100 15 -1 -22.7000 168.100 TC 15 3 162
1996324S04164 1997 114 SP MM CYRIL 1996-11-30 09:00:00 TS -22.8500 168.178 main 135 135 P___________P_ SH061997 -22.8500 168.178 15 -1 -22.8500 168.178 TC 15 4 149
1996324S04164 1997 114 SP MM CYRIL 1996-11-30 12:00:00 TS -23.0000 168.300 main 154 154 O___________O_ jtwc_sh SH061997 -23.0000 168.300 15 -1 -23.0000 168.300 TC 15 4 141
1996324S04164 1997 114 SP MM CYRIL 1996-11-30 15:00:00 TS -23.1274 168.420 main 169 169 P___________P_ SH061997 -23.1274 168.420 15 -1 -23.1274 168.420 TC 15 4 137
1996324S04164 1997 114 SP MM CYRIL 1996-11-30 18:00:00 TS -23.3000 168.600 main 198 198 O___________O_ jtwc_sh SH061997 -23.3000 168.600 15 -1 -23.3000 168.600 TC 15 6 136
1996324S04164 1997 114 SP MM CYRIL 1996-11-30 21:00:00 TS -23.5475 168.863 main 236 236 P___________P_ SH061997 -23.5475 168.863 15 -1 -23.5475 168.863 TC 15 8 138
1996324S04164 1997 114 SP MM CYRIL 1996-12-01 00:00:00 TS -23.9000 169.200 main 287 287 O___________O_ jtwc_sh SH061997 -23.9000 169.200 15 -1 -23.9000 169.200 TC 15 11 141
1996324S04164 1997 114 SP MM CYRIL 1996-12-01 03:00:00 TS -24.3677 169.587 main 354 354 P___________P_ SH061997 -24.3677 169.587 15 -1 -24.3677 169.587 TC 15 12 144
1996324S04164 1997 114 SP MM CYRIL 1996-12-01 06:00:00 TS -24.9000 170.000 main 421 O___________O_ jtwc_sh SH061997 -24.9000 170.000 15 -1 -24.9000 170.000 TC 15 13 145

デジタル台風データ・検索

IBTrACS Databaseについて

本データベースは、米国NOAAが公開する1842年以降の世界の熱帯低気圧のベストトラックデータアーカイブInternational Best Track Archive for Climate Stewardship (IBTrACS)を、ウェブで閲覧しやすい形式に変換したものです。

最終更新日:2021-11-26